createdAt,value
2018-04-12T00:01:44.425Z,15.20
2018-04-12T00:04:12.703Z,15.20
2018-04-12T00:06:41.039Z,15.20
2018-04-12T00:09:09.319Z,15.20
2018-04-12T00:11:37.547Z,15.20
2018-04-12T00:14:05.770Z,15.20
2018-04-12T00:16:34.020Z,15.30
2018-04-12T00:19:02.260Z,15.30
2018-04-12T00:21:30.515Z,15.30
2018-04-12T00:23:58.771Z,15.30
2018-04-12T00:26:27.069Z,15.30
2018-04-12T00:28:56.060Z,15.20
2018-04-12T00:31:25.080Z,15.20
2018-04-12T00:33:53.341Z,15.10
2018-04-12T00:36:22.328Z,15.10
2018-04-12T00:38:50.662Z,15.10
2018-04-12T00:41:18.839Z,15.10
2018-04-12T00:43:47.092Z,15.10
2018-04-12T00:46:15.329Z,15.10
2018-04-12T00:48:44.345Z,15.20
2018-04-12T00:51:12.580Z,15.10
2018-04-12T00:53:52.798Z,15.20
2018-04-12T00:56:21.038Z,15.10
2018-04-12T00:58:49.287Z,14.90
2018-04-12T01:01:17.523Z,14.80
2018-04-12T01:03:45.773Z,14.80
2018-04-12T01:06:14.045Z,14.90
2018-04-12T01:08:42.282Z,14.90
2018-04-12T01:11:10.508Z,14.90
2018-04-12T01:13:38.798Z,15.00
2018-04-12T01:16:07.081Z,14.90
2018-04-12T01:18:35.320Z,14.90
2018-04-12T01:21:04.320Z,14.90
2018-04-12T01:23:32.570Z,14.80
2018-04-12T01:26:00.801Z,14.90
2018-04-12T01:28:29.057Z,14.80
2018-04-12T01:30:57.293Z,14.80
2018-04-12T01:33:25.544Z,14.90
2018-04-12T01:35:53.778Z,14.90
2018-04-12T01:38:22.043Z,14.90
2018-04-12T01:40:51.041Z,14.90
2018-04-12T01:43:19.284Z,14.80
2018-04-12T01:45:47.532Z,14.80
2018-04-12T01:48:15.896Z,14.80
2018-04-12T01:50:44.151Z,14.80
2018-04-12T01:53:12.445Z,14.70
2018-04-12T01:55:41.409Z,14.80
2018-04-12T01:58:10.407Z,14.80
2018-04-12T02:00:39.440Z,14.80
2018-04-12T02:03:07.683Z,14.80
2018-04-12T02:05:36.700Z,14.80
2018-04-12T02:08:04.978Z,14.80
2018-04-12T02:10:33.205Z,14.80
2018-04-12T02:13:01.460Z,14.70
2018-04-12T02:15:29.737Z,14.60
2018-04-12T02:17:57.992Z,14.60
2018-04-12T02:20:26.225Z,14.60
2018-04-12T02:22:55.313Z,14.60
2018-04-12T02:25:23.555Z,14.60
2018-04-12T02:27:51.793Z,14.60
2018-04-12T02:30:20.047Z,14.60
2018-04-12T02:32:49.032Z,14.60
2018-04-12T02:35:18.049Z,14.60
2018-04-12T02:37:46.272Z,14.50
2018-04-12T02:40:15.291Z,14.50
2018-04-12T02:42:43.532Z,14.50
2018-04-12T02:45:11.789Z,14.60
2018-04-12T02:47:40.021Z,14.60
2018-04-12T02:50:08.246Z,14.60
2018-04-12T02:52:36.500Z,14.60
2018-04-12T02:55:04.730Z,14.50
2018-04-12T02:57:32.973Z,14.50
2018-04-12T03:00:01.199Z,14.50
2018-04-12T03:02:29.466Z,14.50
2018-04-12T03:04:57.688Z,14.50
2018-04-12T03:07:25.946Z,14.50
2018-04-12T03:09:54.968Z,14.30
2018-04-12T03:12:23.213Z,14.30
2018-04-12T03:14:52.235Z,14.40
2018-04-12T03:17:20.478Z,14.30
2018-04-12T03:19:49.511Z,14.30
2018-04-12T03:22:17.737Z,14.30
2018-04-12T03:24:45.993Z,14.40
2018-04-12T03:27:14.228Z,14.40
2018-04-12T03:29:42.473Z,14.40
2018-04-12T03:32:10.732Z,14.30
2018-04-12T03:34:38.961Z,14.30
2018-04-12T03:37:07.204Z,14.40
2018-04-12T03:39:36.207Z,14.30
2018-04-12T03:42:05.217Z,14.20
2018-04-12T03:44:33.480Z,14.20
2018-04-12T03:47:01.759Z,14.20
2018-04-12T03:49:29.997Z,14.20
2018-04-12T03:51:58.243Z,14.20
2018-04-12T03:54:26.481Z,14.20
2018-04-12T03:56:55.501Z,14.20
2018-04-12T03:59:23.741Z,14.10
2018-04-12T04:01:51.982Z,14.20
2018-04-12T04:04:20.244Z,14.20
2018-04-12T04:06:48.504Z,14.10
2018-04-12T04:09:17.501Z,14.10
2018-04-12T04:11:45.754Z,14.10
2018-04-12T04:14:26.726Z,14.10
2018-04-12T04:17:06.830Z,14.10
2018-04-12T04:19:47.020Z,14.00
2018-04-12T04:22:15.255Z,14.00
2018-04-12T04:24:43.485Z,14.00
2018-04-12T04:27:12.578Z,14.00
2018-04-12T04:29:41.588Z,14.00
2018-04-12T04:32:09.826Z,13.90
2018-04-12T04:34:38.068Z,13.90
2018-04-12T04:37:06.307Z,13.90
2018-04-12T04:39:35.341Z,13.80
2018-04-12T04:42:04.387Z,13.90
2018-04-12T04:44:33.401Z,13.90
2018-04-12T04:47:01.646Z,13.80
2018-04-12T04:49:29.905Z,13.90
2018-04-12T04:51:58.154Z,13.80
2018-04-12T04:54:26.409Z,13.80
2018-04-12T04:56:54.661Z,13.80
2018-04-12T04:59:23.680Z,13.80
2018-04-12T05:01:51.912Z,13.70
2018-04-12T05:04:20.172Z,13.80
2018-04-12T05:06:48.401Z,13.80
2018-04-12T05:09:16.701Z,13.80
2018-04-12T05:11:44.957Z,13.90
2018-04-12T05:14:13.222Z,13.80
2018-04-12T05:16:41.465Z,13.90
2018-04-12T05:19:09.728Z,13.90
2018-04-12T05:21:38.004Z,13.90
2018-04-12T05:24:06.274Z,13.90
2018-04-12T05:26:34.517Z,13.90
2018-04-12T05:29:02.760Z,13.90
2018-04-12T05:31:31.795Z,13.90
2018-04-12T05:34:00.013Z,13.80
2018-04-12T05:36:28.276Z,13.90
2018-04-12T05:38:56.510Z,13.90
2018-04-12T05:41:24.783Z,13.90
2018-04-12T05:43:53.032Z,13.90
2018-04-12T05:46:21.359Z,13.90
2018-04-12T05:48:49.634Z,14.00
2018-04-12T05:51:17.862Z,14.00
2018-04-12T05:53:46.154Z,14.00
2018-04-12T05:56:15.165Z,14.00
2018-04-12T05:58:43.410Z,14.00
2018-04-12T06:01:11.663Z,14.10
2018-04-12T06:03:39.890Z,14.10
2018-04-12T06:06:08.148Z,14.10
2018-04-12T06:08:37.165Z,14.10
2018-04-12T06:11:05.445Z,14.00
2018-04-12T06:13:33.691Z,14.10
2018-04-12T06:16:02.689Z,14.20
2018-04-12T06:18:31.712Z,14.20
2018-04-12T06:20:59.964Z,14.20
2018-04-12T06:23:29.000Z,14.20
2018-04-12T06:25:57.293Z,14.20
2018-04-12T06:28:25.577Z,14.20
2018-04-12T06:30:53.838Z,14.20
2018-04-12T06:33:22.105Z,14.20
2018-04-12T06:35:50.334Z,14.30
2018-04-12T06:38:19.353Z,14.30
2018-04-12T06:40:47.800Z,14.30
2018-04-12T06:43:16.036Z,14.40
2018-04-12T06:45:44.258Z,14.40
2018-04-12T06:48:13.294Z,14.40
2018-04-12T06:50:41.612Z,14.40
2018-04-12T06:53:09.862Z,14.50
2018-04-12T06:55:38.098Z,14.50
2018-04-12T06:58:07.112Z,14.60
2018-04-12T07:00:35.373Z,14.60
2018-04-12T07:03:03.661Z,14.60
2018-04-12T07:05:31.975Z,14.70
2018-04-12T07:08:00.180Z,14.80
2018-04-12T07:10:28.426Z,14.80
2018-04-12T07:12:56.677Z,14.80
2018-04-12T07:15:24.927Z,14.70
2018-04-12T07:17:54.012Z,14.80
2018-04-12T07:20:22.246Z,14.70
2018-04-12T07:22:50.489Z,14.80
2018-04-12T07:25:18.862Z,14.80
2018-04-12T07:27:47.129Z,15.00
2018-04-12T07:30:15.392Z,15.00
2018-04-12T07:32:44.415Z,15.20
2018-04-12T07:35:12.677Z,15.10
2018-04-12T07:37:40.965Z,15.20
2018-04-12T07:40:09.225Z,15.30
2018-04-12T07:42:38.298Z,15.40
2018-04-12T07:45:06.550Z,15.30
2018-04-12T07:47:34.791Z,15.40
2018-04-12T07:50:03.074Z,15.50
2018-04-12T07:52:31.301Z,15.60
2018-04-12T07:54:59.567Z,15.70
2018-04-12T07:57:27.820Z,15.70
2018-04-12T07:59:56.081Z,15.80
2018-04-12T08:02:24.332Z,15.80
2018-04-12T08:04:53.383Z,16.00
2018-04-12T08:07:21.620Z,15.90
2018-04-12T08:09:49.881Z,16.10
2018-04-12T08:12:18.910Z,16.20
2018-04-12T08:14:47.157Z,16.20
2018-04-12T08:17:15.425Z,16.30
2018-04-12T08:19:44.430Z,16.50
2018-04-12T08:22:12.696Z,16.40
2018-04-12T08:24:41.703Z,16.60
2018-04-12T08:27:10.849Z,16.60
2018-04-12T08:29:39.157Z,16.60
2018-04-12T08:32:07.384Z,16.50
2018-04-12T08:34:35.648Z,16.50
2018-04-12T08:37:03.904Z,16.50
2018-04-12T08:39:32.186Z,16.60
2018-04-12T08:42:01.223Z,16.60
2018-04-12T08:44:29.496Z,16.70
2018-04-12T08:46:57.756Z,16.70
2018-04-12T08:49:25.993Z,16.80
2018-04-12T08:51:55.004Z,16.90
2018-04-12T08:54:23.254Z,16.80
2018-04-12T08:56:52.324Z,17.10
2018-04-12T08:59:20.576Z,17.00
2018-04-12T09:01:48.832Z,17.10
2018-04-12T09:04:17.086Z,17.10
2018-04-12T09:06:46.091Z,17.10
2018-04-12T09:09:14.349Z,17.10
2018-04-12T09:11:43.349Z,17.10
2018-04-12T09:14:12.395Z,17.20
2018-04-12T09:16:40.619Z,17.20
2018-04-12T09:19:09.706Z,17.30
2018-04-12T09:21:37.930Z,17.30
2018-04-12T09:24:06.194Z,17.40
2018-04-12T09:26:34.421Z,17.50
2018-04-12T09:29:02.671Z,17.50
2018-04-12T09:31:30.928Z,17.60
2018-04-12T09:33:59.179Z,17.70
2018-04-12T09:36:28.179Z,17.90
2018-04-12T09:38:56.466Z,17.90
2018-04-12T09:41:24.697Z,18.00
2018-04-12T09:43:52.949Z,18.10
2018-04-12T09:46:21.253Z,18.10
2018-04-12T09:48:49.504Z,18.20
2018-04-12T09:51:17.733Z,18.30
2018-04-12T09:53:45.987Z,18.30
2018-04-12T09:56:14.244Z,18.30
2018-04-12T09:58:42.505Z,18.30
2018-04-12T10:01:15.699Z,18.40
2018-04-12T10:03:43.927Z,18.30
2018-04-12T10:06:27.047Z,18.40
2018-04-12T10:09:01.790Z,18.60
2018-04-12T10:11:30.042Z,18.60
2018-04-12T10:13:59.056Z,18.70
2018-04-12T10:16:27.316Z,18.70
2018-04-12T10:18:56.355Z,18.90
2018-04-12T10:21:24.584Z,18.80
2018-04-12T10:23:53.604Z,19.00
2018-04-12T10:26:21.838Z,19.00
2018-04-12T10:28:50.116Z,19.00
2018-04-12T10:31:18.334Z,19.10
2018-04-12T10:33:46.594Z,19.10
2018-04-12T10:36:15.596Z,19.20
2018-04-12T10:38:43.889Z,19.10
2018-04-12T10:41:12.085Z,19.20
2018-04-12T10:43:40.325Z,19.20
2018-04-12T10:46:08.582Z,19.30
2018-04-12T10:48:37.588Z,19.40
2018-04-12T10:51:06.613Z,19.40
2018-04-12T10:53:34.848Z,19.40
2018-04-12T10:56:03.873Z,19.50
2018-04-12T10:58:32.119Z,19.50
2018-04-12T11:01:01.112Z,19.60
2018-04-12T11:03:30.167Z,19.50
2018-04-12T11:05:58.371Z,19.50
2018-04-12T11:08:26.719Z,19.50
2018-04-12T11:10:54.961Z,19.60
2018-04-12T11:13:23.196Z,19.60
2018-04-12T11:15:51.456Z,19.70
2018-04-12T11:18:19.795Z,19.80
2018-04-12T11:20:48.027Z,19.90
2018-04-12T11:23:16.291Z,20.00
2018-04-12T11:25:44.628Z,20.10
2018-04-12T11:28:12.873Z,20.10
2018-04-12T11:30:41.874Z,20.20
2018-04-12T11:33:10.955Z,20.20
2018-04-12T11:35:39.193Z,20.20
2018-04-12T11:38:07.458Z,20.20
2018-04-12T11:40:35.770Z,20.30
2018-04-12T11:43:03.996Z,20.30
2018-04-12T11:45:32.229Z,20.30
2018-04-12T11:48:00.471Z,20.40
2018-04-12T11:50:28.705Z,20.40
2018-04-12T11:52:57.022Z,20.40
2018-04-12T11:55:25.236Z,20.50
2018-04-12T11:57:53.467Z,20.50
2018-04-12T12:00:21.714Z,20.50
2018-04-12T12:02:50.731Z,20.50
2018-04-12T12:05:18.982Z,20.50
2018-04-12T12:07:47.265Z,20.60
2018-04-12T12:10:16.291Z,20.60
2018-04-12T12:12:44.520Z,20.60
2018-04-12T12:15:13.501Z,20.70
2018-04-12T12:17:42.529Z,20.80
2018-04-12T12:20:10.770Z,20.70
2018-04-12T12:22:39.016Z,20.80
2018-04-12T12:25:07.264Z,20.90
2018-04-12T12:27:35.524Z,21.00
2018-04-12T12:30:04.524Z,21.00
2018-04-12T12:32:32.748Z,21.00
2018-04-12T12:35:01.000Z,21.00
2018-04-12T12:37:29.222Z,21.10
2018-04-12T12:39:57.477Z,21.10
2018-04-12T12:42:25.701Z,21.10
2018-04-12T12:44:53.940Z,21.20
2018-04-12T12:47:22.244Z,21.30
2018-04-12T12:49:51.232Z,21.30
2018-04-12T12:52:20.251Z,21.30
2018-04-12T12:54:48.487Z,21.30
2018-04-12T12:57:16.736Z,21.40
2018-04-12T12:59:44.958Z,21.40
2018-04-12T13:02:13.970Z,21.50
2018-04-12T13:04:42.192Z,21.40
2018-04-12T13:07:10.445Z,21.50
2018-04-12T13:09:38.690Z,21.50
2018-04-12T13:12:06.952Z,21.50
2018-04-12T13:14:35.971Z,21.60
2018-04-12T13:17:04.204Z,21.50
2018-04-12T13:19:32.435Z,21.60
2018-04-12T13:22:00.693Z,21.70
2018-04-12T13:24:28.916Z,21.80
2018-04-12T13:26:57.177Z,21.80
2018-04-12T13:29:25.407Z,21.90
2018-04-12T13:31:54.432Z,22.10
2018-04-12T13:34:24.029Z,22.10
2018-04-12T13:36:52.265Z,22.10
2018-04-12T13:39:20.891Z,22.20
2018-04-12T13:41:49.144Z,22.20
2018-04-12T13:44:18.216Z,22.30
2018-04-12T13:46:46.389Z,22.30
2018-04-12T13:49:14.668Z,22.40
2018-04-12T13:51:42.916Z,22.50
2018-04-12T13:54:11.160Z,22.60
2018-04-12T13:56:39.387Z,22.70
2018-04-12T13:59:07.689Z,22.70
2018-04-12T14:01:36.698Z,22.90
2018-04-12T14:04:04.955Z,22.90
2018-04-12T14:06:33.991Z,22.90
2018-04-12T14:09:02.226Z,22.90
2018-04-12T14:11:31.238Z,23.00
2018-04-12T14:13:59.532Z,22.90
2018-04-12T14:16:27.789Z,23.00
2018-04-12T14:18:56.034Z,23.00
2018-04-12T14:21:24.270Z,23.00
2018-04-12T14:23:52.524Z,23.10
2018-04-12T14:26:20.745Z,23.10
2018-04-12T14:28:48.995Z,23.10
2018-04-12T14:31:17.236Z,23.00
2018-04-12T14:33:46.226Z,23.00
2018-04-12T14:36:15.338Z,22.90
2018-04-12T14:38:43.486Z,22.90
2018-04-12T14:41:12.508Z,22.80
2018-04-12T14:43:40.733Z,22.80
2018-04-12T14:46:08.991Z,22.80
2018-04-12T14:48:37.248Z,22.80
2018-04-12T14:51:05.509Z,22.80
2018-04-12T14:53:33.794Z,22.80
2018-04-12T14:56:02.009Z,22.80
2018-04-12T14:58:30.241Z,22.80
2018-04-12T15:00:58.474Z,22.80
2018-04-12T15:03:26.729Z,22.80
2018-04-12T15:05:54.999Z,22.80
2018-04-12T15:08:24.061Z,22.70
2018-04-12T15:10:52.292Z,22.70
2018-04-12T15:13:21.091Z,22.70
2018-04-12T15:15:49.349Z,22.60
2018-04-12T15:18:17.609Z,22.70
2018-04-12T15:20:46.338Z,22.70
2018-04-12T15:23:15.293Z,22.70
2018-04-12T15:25:43.529Z,22.70
2018-04-12T15:28:11.853Z,22.70
2018-04-12T15:30:40.112Z,22.70
2018-04-12T15:33:08.390Z,22.70
2018-04-12T15:35:37.188Z,22.70
2018-04-12T15:38:05.422Z,22.60
2018-04-12T15:40:34.477Z,22.50
2018-04-12T15:43:03.125Z,22.50
2018-04-12T15:45:31.371Z,22.50
2018-04-12T15:48:00.375Z,22.40
2018-04-12T15:50:28.625Z,22.40
2018-04-12T15:52:57.653Z,22.50
2018-04-12T15:55:25.918Z,22.40
2018-04-12T15:57:54.130Z,22.50
2018-04-12T16:00:22.425Z,22.50
2018-04-12T16:02:50.680Z,22.50
2018-04-12T16:05:18.909Z,22.50
2018-04-12T16:07:47.995Z,22.50
2018-04-12T16:10:16.200Z,22.40
2018-04-12T16:12:44.470Z,22.50
2018-04-12T16:15:13.469Z,22.50
2018-04-12T16:17:41.688Z,22.40
2018-04-12T16:20:09.939Z,22.50
2018-04-12T16:22:38.184Z,22.50
2018-04-12T16:25:07.203Z,22.50
2018-04-12T16:27:35.449Z,22.50
2018-04-12T16:30:04.438Z,22.50
2018-04-12T16:32:32.700Z,22.40
2018-04-12T16:35:00.918Z,22.40
2018-04-12T16:37:29.192Z,22.40
2018-04-12T16:39:57.426Z,22.30
2018-04-12T16:42:25.650Z,22.30
2018-04-12T16:44:53.904Z,22.20
2018-04-12T16:47:22.896Z,22.10
2018-04-12T16:49:51.929Z,22.10
2018-04-12T16:52:20.167Z,22.00
2018-04-12T16:54:49.155Z,22.00
2018-04-12T16:57:18.172Z,22.00
2018-04-12T16:59:46.440Z,21.90
2018-04-12T17:02:15.468Z,21.80
2018-04-12T17:04:43.695Z,21.80
2018-04-12T17:07:12.713Z,21.80
2018-04-12T17:09:40.949Z,21.80
2018-04-12T17:12:09.217Z,21.80
2018-04-12T17:14:37.451Z,21.80
2018-04-12T17:17:05.685Z,21.80
2018-04-12T17:19:33.943Z,21.70
2018-04-12T17:22:02.183Z,21.70
2018-04-12T17:24:30.418Z,21.60
2018-04-12T17:26:59.445Z,21.60
2018-04-12T17:29:27.678Z,21.50
2018-04-12T17:31:56.734Z,21.60
2018-04-12T17:34:25.050Z,21.50
2018-04-12T17:36:53.304Z,21.50
2018-04-12T17:39:21.572Z,21.50
2018-04-12T17:41:49.800Z,21.40
2018-04-12T17:44:18.833Z,21.30
2018-04-12T17:46:47.055Z,21.30
2018-04-12T17:49:15.285Z,21.30
2018-04-12T17:51:43.554Z,21.20
2018-04-12T17:54:11.791Z,21.20
2018-04-12T17:56:40.807Z,21.20
2018-04-12T17:59:09.072Z,21.20
2018-04-12T18:01:38.112Z,21.20
2018-04-12T18:04:06.348Z,21.10
2018-04-12T18:06:35.367Z,21.10
2018-04-12T18:09:03.602Z,21.10
2018-04-12T18:11:32.608Z,21.00
2018-04-12T18:14:01.601Z,20.90
2018-04-12T18:16:30.621Z,20.90
2018-04-12T18:18:58.852Z,20.80
2018-04-12T18:21:27.097Z,20.90
2018-04-12T18:23:55.336Z,20.90
2018-04-12T18:26:23.596Z,20.90
2018-04-12T18:28:52.596Z,20.80
2018-04-12T18:31:20.832Z,20.80
2018-04-12T18:33:49.124Z,20.80
2018-04-12T18:36:17.316Z,20.80
2018-04-12T18:38:46.342Z,20.80
2018-04-12T18:41:14.571Z,20.80
2018-04-12T18:43:42.854Z,20.80
2018-04-12T18:46:11.106Z,20.70
2018-04-12T18:48:39.331Z,20.70
2018-04-12T18:51:07.556Z,20.60
2018-04-12T18:53:35.813Z,20.60
2018-04-12T18:56:04.045Z,20.60
2018-04-12T18:58:33.069Z,20.60
2018-04-12T19:01:01.323Z,20.60
2018-04-12T19:03:30.333Z,20.60
2018-04-12T19:05:58.576Z,20.50
2018-04-12T19:08:27.598Z,20.50
2018-04-12T19:10:55.854Z,20.50
2018-04-12T19:13:24.089Z,20.50
2018-04-12T19:15:52.318Z,20.50
2018-04-12T19:18:20.555Z,20.40
2018-04-12T19:20:48.806Z,20.40
2018-04-12T19:23:17.793Z,20.40
2018-04-12T19:25:46.124Z,20.40
2018-04-12T19:28:15.113Z,20.40
2018-04-12T19:30:44.164Z,20.30
2018-04-12T19:33:12.404Z,20.30
2018-04-12T19:35:40.653Z,20.30
2018-04-12T19:38:08.880Z,20.30
2018-04-12T19:40:37.141Z,20.20
2018-04-12T19:43:05.368Z,20.20
2018-04-12T19:45:33.623Z,20.10
2018-04-12T19:48:01.867Z,20.10
2018-04-12T19:50:30.088Z,20.10
2018-04-12T19:52:58.342Z,20.10
2018-04-12T19:55:26.577Z,20.10
2018-04-12T19:57:55.587Z,20.00
2018-04-12T20:00:23.849Z,20.00
2018-04-12T20:02:52.055Z,20.00
2018-04-12T20:05:20.318Z,20.00
2018-04-12T20:07:48.559Z,20.00
2018-04-12T20:10:16.788Z,20.10
2018-04-12T20:12:45.051Z,20.00
2018-04-12T20:15:13.283Z,20.00
2018-04-12T20:17:41.540Z,20.00
2018-04-12T20:20:09.765Z,20.00
2018-04-12T20:22:38.094Z,20.00
2018-04-12T20:25:07.063Z,19.90
2018-04-12T20:27:35.265Z,19.80
2018-04-12T20:30:03.540Z,19.90
2018-04-12T20:32:31.744Z,19.90
2018-04-12T20:35:00.797Z,19.90
2018-04-12T20:37:29.040Z,19.80
2018-04-12T20:39:57.268Z,19.80
2018-04-12T20:42:25.534Z,19.80
2018-04-12T20:44:53.776Z,19.70
2018-04-12T20:47:22.013Z,19.80
2018-04-12T20:49:50.256Z,19.70
2018-04-12T20:52:18.502Z,19.70
2018-04-12T20:54:46.763Z,19.70
2018-04-12T20:57:15.761Z,19.60
2018-04-12T20:59:44.016Z,19.60
2018-04-12T21:02:13.018Z,19.60
2018-04-12T21:04:42.032Z,19.60
2018-04-12T21:07:10.327Z,19.60
2018-04-12T21:09:38.550Z,19.60
2018-04-12T21:12:06.795Z,19.60
2018-04-12T21:14:35.020Z,19.60
2018-04-12T21:17:04.032Z,19.60
2018-04-12T21:19:32.261Z,19.50
2018-04-12T21:22:00.507Z,19.50
2018-04-12T21:24:28.738Z,19.50
2018-04-12T21:26:57.752Z,19.50
2018-04-12T21:29:25.989Z,19.40
2018-04-12T21:31:54.238Z,19.50
2018-04-12T21:34:22.492Z,19.40
2018-04-12T21:36:50.724Z,19.40
2018-04-12T21:39:19.743Z,19.30
2018-04-12T21:41:47.980Z,19.30
2018-04-12T21:44:16.199Z,19.30
2018-04-12T21:46:44.447Z,19.40
2018-04-12T21:49:13.465Z,19.30
2018-04-12T21:51:41.713Z,19.30
2018-04-12T21:54:09.961Z,19.30
2018-04-12T21:56:38.220Z,19.30
2018-04-12T21:59:06.454Z,19.30
2018-04-12T22:01:35.441Z,19.20
2018-04-12T22:04:04.452Z,19.20
2018-04-12T22:06:32.687Z,19.20
2018-04-12T22:09:00.969Z,19.20
2018-04-12T22:11:29.212Z,19.20
2018-04-12T22:13:57.441Z,19.20
2018-04-12T22:16:26.473Z,19.00
2018-04-12T22:18:54.705Z,19.00
2018-04-12T22:21:23.733Z,19.00
2018-04-12T22:23:51.960Z,19.00
2018-04-12T22:26:20.210Z,19.00
2018-04-12T22:28:48.454Z,19.00
2018-04-12T22:31:16.701Z,19.10
2018-04-12T22:33:44.929Z,19.10
2018-04-12T22:36:13.187Z,19.10
2018-04-12T22:38:41.414Z,19.10
2018-04-12T22:41:09.663Z,19.10
2018-04-12T22:43:37.890Z,19.10
2018-04-12T22:46:06.916Z,19.00
2018-04-12T22:48:35.153Z,19.00
2018-04-12T22:51:04.144Z,18.90
2018-04-12T22:53:32.397Z,18.90
2018-04-12T22:56:00.644Z,18.90
2018-04-12T22:58:28.886Z,18.90
2018-04-12T23:00:57.883Z,18.90
2018-04-12T23:03:26.899Z,19.00
2018-04-12T23:05:55.145Z,19.00
2018-04-12T23:08:24.154Z,19.00
2018-04-12T23:10:53.160Z,19.00
2018-04-12T23:13:21.416Z,19.00
2018-04-12T23:15:50.427Z,19.00
2018-04-12T23:18:18.675Z,19.00
2018-04-12T23:20:46.921Z,19.00
2018-04-12T23:23:15.179Z,19.00
2018-04-12T23:25:43.408Z,19.00
2018-04-12T23:28:12.443Z,19.10
2018-04-12T23:30:40.688Z,19.00
2018-04-12T23:33:09.667Z,19.10
2018-04-12T23:35:38.688Z,19.00
2018-04-12T23:38:06.917Z,19.00
2018-04-12T23:40:35.146Z,18.90
2018-04-12T23:43:03.412Z,18.90
2018-04-12T23:45:31.637Z,18.90
2018-04-12T23:47:59.876Z,18.90
2018-04-12T23:50:28.129Z,18.90
2018-04-12T23:52:57.134Z,18.80
2018-04-12T23:55:25.399Z,18.70
2018-04-12T23:57:54.431Z,18.80
